createdAt,value
2019-06-08T00:00:46.843Z,100263.80
2019-06-08T00:01:51.066Z,100270.41
2019-06-08T00:02:55.818Z,100271.81
2019-06-08T00:04:00.011Z,100272.28
2019-06-08T00:05:07.265Z,100267.97
2019-06-08T00:06:12.634Z,100266.91
2019-06-08T00:07:18.822Z,100269.38
2019-06-08T00:08:23.102Z,100277.16
2019-06-08T00:09:27.942Z,100278.83
2019-06-08T00:10:32.369Z,100273.70
2019-06-08T00:11:37.188Z,100278.25
2019-06-08T00:12:41.373Z,100280.21
2019-06-08T00:13:46.606Z,100283.86
2019-06-08T00:14:50.867Z,100279.20
2019-06-08T00:15:56.033Z,100281.75
2019-06-08T00:17:00.220Z,100281.23
2019-06-08T00:18:05.595Z,100277.18
2019-06-08T00:19:09.775Z,100293.71
2019-06-08T00:20:15.432Z,100290.33
2019-06-08T00:21:19.705Z,100294.80
2019-06-08T00:22:24.820Z,100293.47
2019-06-08T00:23:29.006Z,100286.89
2019-06-08T00:24:33.859Z,100292.47
2019-06-08T00:25:38.095Z,100282.57
2019-06-08T00:26:42.863Z,100277.42
2019-06-08T00:27:47.138Z,100275.59
2019-06-08T00:28:51.902Z,100272.67
2019-06-08T00:29:56.090Z,100272.67
2019-06-08T00:31:00.896Z,100271.66
2019-06-08T00:32:05.079Z,100272.45
2019-06-08T00:33:09.850Z,100274.23
2019-06-08T00:34:14.514Z,100280.98
2019-06-08T00:35:20.666Z,100287.52
2019-06-08T00:36:25.134Z,100288.04
2019-06-08T00:37:29.906Z,100286.63
2019-06-08T00:38:34.350Z,100292.35
2019-06-08T00:39:39.383Z,100284.95
2019-06-08T00:40:44.211Z,100290.11
2019-06-08T00:41:49.009Z,100287.55
2019-06-08T00:42:53.311Z,100297.77
2019-06-08T00:43:58.030Z,100283.44
2019-06-08T00:45:02.483Z,100289.31
2019-06-08T00:46:07.289Z,100282.59
2019-06-08T00:47:11.449Z,100285.97
2019-06-08T00:48:16.717Z,100296.09
2019-06-08T00:49:20.954Z,100303.17
2019-06-08T00:50:25.721Z,100308.93
2019-06-08T00:51:30.006Z,100301.06
2019-06-08T00:52:34.848Z,100301.37
2019-06-08T00:53:39.106Z,100308.14
2019-06-08T00:54:43.922Z,100313.73
2019-06-08T00:55:48.064Z,100314.65
2019-06-08T00:56:52.973Z,100312.37
2019-06-08T00:57:57.143Z,100315.66
2019-06-08T00:59:02.105Z,100316.98
2019-06-08T01:00:10.627Z,100323.14
2019-06-08T01:01:13.257Z,100329.07
2019-06-08T01:02:18.243Z,100332.45
2019-06-08T01:03:23.821Z,100340.29
2019-06-08T01:04:29.145Z,100337.16
2019-06-08T01:05:33.985Z,100332.55
2019-06-08T01:06:38.202Z,100337.02
2019-06-08T01:07:42.962Z,100347.36
2019-06-08T01:08:47.353Z,100342.78
2019-06-08T01:09:52.122Z,100344.15
2019-06-08T01:10:56.383Z,100364.02
2019-06-08T01:12:01.462Z,100369.04
2019-06-08T01:13:05.725Z,100362.78
2019-06-08T01:14:10.525Z,100366.87
2019-06-08T01:15:16.402Z,100362.01
2019-06-08T01:16:21.202Z,100368.39
2019-06-08T01:17:25.382Z,100379.33
2019-06-08T01:18:30.291Z,100378.44
2019-06-08T01:19:34.505Z,100375.26
2019-06-08T01:20:39.349Z,100381.20
2019-06-08T01:21:43.477Z,100362.44
2019-06-08T01:22:48.382Z,100362.44
2019-06-08T01:23:52.566Z,100375.26
2019-06-08T01:24:58.414Z,100373.84
2019-06-08T01:26:03.174Z,100376.67
2019-06-08T01:27:07.997Z,100383.97
2019-06-08T01:28:12.854Z,100377.44
2019-06-08T01:29:17.699Z,100383.59
2019-06-08T01:30:22.254Z,100378.02
2019-06-08T01:31:28.369Z,100375.45
2019-06-08T01:32:32.577Z,100380.58
2019-06-08T01:33:37.368Z,100386.53
2019-06-08T01:34:41.563Z,100385.91
2019-06-08T01:35:46.330Z,100379.48
2019-06-08T01:36:50.587Z,100386.67
2019-06-08T01:37:55.498Z,100386.89
2019-06-08T01:38:59.694Z,100382.67
2019-06-08T01:40:08.291Z,100380.62
2019-06-08T01:41:12.472Z,100389.02
2019-06-08T01:42:17.242Z,100381.30
2019-06-08T01:43:21.844Z,100390.07
2019-06-08T01:44:27.950Z,100404.69
2019-06-08T01:45:33.169Z,100404.69
2019-06-08T01:46:38.186Z,100421.27
2019-06-08T01:47:42.371Z,100426.65
2019-06-08T01:48:47.142Z,100418.72
2019-06-08T01:49:51.359Z,100414.81
2019-06-08T01:50:56.151Z,100406.72
2019-06-08T01:52:00.421Z,100412.09
2019-06-08T01:53:05.171Z,100420.72
2019-06-08T01:54:09.348Z,100421.02
2019-06-08T01:55:14.144Z,100421.86
2019-06-08T01:56:18.357Z,100418.47
2019-06-08T01:57:23.181Z,100415.06
2019-06-08T01:58:27.452Z,100410.85
2019-06-08T01:59:34.550Z,100405.36
2019-06-08T02:00:41.486Z,100411.00
2019-06-08T02:01:44.684Z,100405.36
2019-06-08T02:02:48.870Z,100406.51
2019-06-08T02:03:53.638Z,100399.53
2019-06-08T02:04:57.822Z,100400.98
2019-06-08T02:06:02.775Z,100402.33
2019-06-08T02:07:07.010Z,100396.59
2019-06-08T02:08:11.775Z,100398.53
2019-06-08T02:09:15.963Z,100399.77
2019-06-08T02:10:20.727Z,100397.07
2019-06-08T02:11:24.984Z,100409.75
2019-06-08T02:12:31.072Z,100429.47
2019-06-08T02:13:35.400Z,100423.63
2019-06-08T02:14:40.167Z,100423.63
2019-06-08T02:15:44.464Z,100444.40
2019-06-08T02:16:49.248Z,100445.64
2019-06-08T02:17:53.420Z,100431.88
2019-06-08T02:18:58.203Z,100434.10
2019-06-08T02:20:02.421Z,100428.17
2019-06-08T02:21:07.201Z,100426.09
2019-06-08T02:22:11.482Z,100431.81
2019-06-08T02:23:16.250Z,100411.04
2019-06-08T02:24:20.435Z,100420.94
2019-06-08T02:25:29.376Z,100430.81
2019-06-08T02:26:35.146Z,100435.02
2019-06-08T02:27:40.758Z,100440.92
2019-06-08T02:28:44.946Z,100443.56
2019-06-08T02:29:49.747Z,100450.39
2019-06-08T02:30:53.935Z,100443.61
2019-06-08T02:31:58.786Z,100432.84
2019-06-08T02:33:02.972Z,100442.20
2019-06-08T02:34:07.811Z,100432.65
2019-06-08T02:35:12.017Z,100441.36
2019-06-08T02:36:16.808Z,100435.95
2019-06-08T02:37:20.991Z,100444.95
2019-06-08T02:38:27.472Z,100448.05
2019-06-08T02:39:32.742Z,100444.70
2019-06-08T02:40:37.662Z,100449.17
2019-06-08T02:41:41.829Z,100449.17
2019-06-08T02:42:46.632Z,100449.75
2019-06-08T02:43:50.810Z,100455.34
2019-06-08T02:44:55.588Z,100446.64
2019-06-08T02:45:59.811Z,100442.99
2019-06-08T02:47:05.480Z,100451.44
2019-06-08T02:48:09.728Z,100440.05
2019-06-08T02:49:14.519Z,100446.30
2019-06-08T02:50:22.082Z,100445.42
2019-06-08T02:51:28.639Z,100463.14
2019-06-08T02:52:34.224Z,100466.53
2019-06-08T02:53:41.395Z,100460.64
2019-06-08T02:54:45.790Z,100459.50
2019-06-08T02:55:50.805Z,100454.96
2019-06-08T02:56:55.067Z,100467.28
2019-06-08T02:58:00.136Z,100459.98
2019-06-08T02:59:04.640Z,100463.14
2019-06-08T03:00:15.649Z,100459.81
2019-06-08T03:01:20.145Z,100455.32
2019-06-08T03:02:29.621Z,100455.67
2019-06-08T03:03:35.745Z,100459.09
2019-06-08T03:04:41.284Z,100464.95
2019-06-08T03:05:45.554Z,100461.61
2019-06-08T03:06:50.325Z,100459.85
2019-06-08T03:07:55.070Z,100456.23
2019-06-08T03:08:59.960Z,100468.25
2019-06-08T03:10:06.045Z,100467.49
2019-06-08T03:11:10.980Z,100463.65
2019-06-08T03:12:15.168Z,100462.20
2019-06-08T03:13:19.944Z,100462.47
2019-06-08T03:14:28.802Z,100462.47
2019-06-08T03:15:35.068Z,100464.45
2019-06-08T03:16:41.555Z,100474.34
2019-06-08T03:17:45.928Z,100459.70
2019-06-08T03:18:50.126Z,100467.03
2019-06-08T03:19:54.940Z,100470.42
2019-06-08T03:21:00.153Z,100462.89
2019-06-08T03:22:04.921Z,100477.42
2019-06-08T03:23:09.103Z,100481.23
2019-06-08T03:24:13.880Z,100480.35
2019-06-08T03:25:18.256Z,100477.27
2019-06-08T03:26:23.190Z,100495.49
2019-06-08T03:27:27.370Z,100497.20
2019-06-08T03:28:32.660Z,100491.11
2019-06-08T03:29:38.986Z,100504.35
2019-06-08T03:30:52.971Z,100500.16
2019-06-08T03:31:55.744Z,100511.48
2019-06-08T03:32:57.337Z,100509.58
2019-06-08T03:34:01.818Z,100502.28
2019-06-08T03:35:07.493Z,100509.28
2019-06-08T03:36:11.708Z,100503.28
2019-06-08T03:37:16.588Z,100498.06
2019-06-08T03:38:21.478Z,100501.14
2019-06-08T03:39:26.251Z,100507.30
2019-06-08T03:40:30.771Z,100520.20
2019-06-08T03:41:36.257Z,100509.88
2019-06-08T03:42:40.843Z,100515.27
2019-06-08T03:43:45.683Z,100520.30
2019-06-08T03:44:49.869Z,100520.30
2019-06-08T03:45:54.636Z,100537.42
2019-06-08T03:46:58.825Z,100526.73
2019-06-08T03:48:03.687Z,100528.67
2019-06-08T03:49:09.004Z,100532.36
2019-06-08T03:50:13.828Z,100525.15
2019-06-08T03:51:18.101Z,100524.61
2019-06-08T03:52:22.958Z,100520.09
2019-06-08T03:53:27.245Z,100529.07
2019-06-08T03:54:32.079Z,100529.07
2019-06-08T03:55:37.998Z,100534.03
2019-06-08T03:56:44.168Z,100542.20
2019-06-08T03:57:48.395Z,100526.16
2019-06-08T03:58:54.295Z,100533.13
2019-06-08T03:59:58.542Z,100535.14
2019-06-08T04:01:03.311Z,100534.00
2019-06-08T04:02:07.564Z,100536.55
2019-06-08T04:03:13.597Z,100551.28
2019-06-08T04:04:17.929Z,100559.21
2019-06-08T04:05:22.673Z,100564.35
2019-06-08T04:06:26.860Z,100566.37
2019-06-08T04:07:32.973Z,100563.31
2019-06-08T04:08:37.975Z,100561.89
2019-06-08T04:09:43.974Z,100571.16
2019-06-08T04:10:50.442Z,100567.73
2019-06-08T04:11:55.322Z,100555.34
2019-06-08T04:12:59.798Z,100560.97
2019-06-08T04:14:04.781Z,100568.48
2019-06-08T04:15:09.047Z,100573.55
2019-06-08T04:16:13.851Z,100571.84
2019-06-08T04:17:18.105Z,100565.64
2019-06-08T04:18:22.953Z,100579.98
2019-06-08T04:19:27.552Z,100565.08
2019-06-08T04:20:32.673Z,100571.24
2019-06-08T04:21:37.869Z,100570.08
2019-06-08T04:22:47.080Z,100577.68
2019-06-08T04:23:51.742Z,100564.45
2019-06-08T04:24:57.494Z,100577.20
2019-06-08T04:26:04.227Z,100567.73
2019-06-08T04:27:09.014Z,100582.02
2019-06-08T04:28:13.337Z,100566.81
2019-06-08T04:29:18.103Z,100572.41
2019-06-08T04:30:22.548Z,100572.41
2019-06-08T04:31:27.381Z,100576.92
2019-06-08T04:32:31.896Z,100580.94
2019-06-08T04:33:37.799Z,100575.02
2019-06-08T04:34:42.924Z,100571.88
2019-06-08T04:35:47.987Z,100583.61
2019-06-08T04:36:53.447Z,100577.38
2019-06-08T04:37:58.320Z,100588.33
2019-06-08T04:39:02.583Z,100582.05
2019-06-08T04:40:08.200Z,100591.36
2019-06-08T04:41:12.382Z,100584.11
2019-06-08T04:42:17.210Z,100593.91
2019-06-08T04:43:21.395Z,100590.22
2019-06-08T04:44:26.189Z,100593.30
2019-06-08T04:45:30.551Z,100595.55
2019-06-08T04:46:36.382Z,100592.41
2019-06-08T04:47:41.499Z,100591.20
2019-06-08T04:48:47.897Z,100595.95
2019-06-08T04:49:54.105Z,100603.27
2019-06-08T04:50:58.901Z,100607.76
2019-06-08T04:52:03.266Z,100614.53
2019-06-08T04:53:08.151Z,100618.38
2019-06-08T04:54:14.578Z,100614.70
2019-06-08T04:55:18.878Z,100608.23
2019-06-08T04:56:24.219Z,100606.18
2019-06-08T04:57:30.427Z,100612.05
2019-06-08T04:58:34.572Z,100611.75
2019-06-08T04:59:41.156Z,100612.92
2019-06-08T05:00:46.278Z,100612.72
2019-06-08T05:01:52.182Z,100613.09
2019-06-08T05:02:56.358Z,100630.28
2019-06-08T05:04:01.187Z,100616.00
2019-06-08T05:05:07.074Z,100617.41
2019-06-08T05:06:11.864Z,100617.38
2019-06-08T05:07:16.165Z,100621.89
2019-06-08T05:08:20.930Z,100605.27
2019-06-08T05:09:25.178Z,100617.38
2019-06-08T05:10:30.144Z,100626.69
2019-06-08T05:11:36.409Z,100607.88
2019-06-08T05:12:41.358Z,100622.55
2019-06-08T05:13:47.515Z,100611.33
2019-06-08T05:14:52.663Z,100616.36
2019-06-08T05:15:56.972Z,100626.78
2019-06-08T05:17:01.742Z,100629.02
2019-06-08T05:18:06.225Z,100636.92
2019-06-08T05:19:10.981Z,100625.94
2019-06-08T05:20:15.182Z,100635.48
2019-06-08T05:21:20.164Z,100639.11
2019-06-08T05:22:24.675Z,100637.41
2019-06-08T05:23:29.518Z,100646.99
2019-06-08T05:24:33.704Z,100649.86
2019-06-08T05:25:39.077Z,100650.53
2019-06-08T05:26:43.650Z,100648.31
2019-06-08T05:27:49.543Z,100655.13
2019-06-08T05:28:53.981Z,100661.59
2019-06-08T05:29:59.746Z,100655.72
2019-06-08T05:31:04.684Z,100658.86
2019-06-08T05:32:09.611Z,100659.09
2019-06-08T05:33:13.794Z,100655.08
2019-06-08T05:34:18.567Z,100663.80
2019-06-08T05:35:22.751Z,100656.19
2019-06-08T05:36:27.542Z,100657.84
2019-06-08T05:37:31.959Z,100651.05
2019-06-08T05:38:36.966Z,100653.52
2019-06-08T05:39:41.457Z,100651.27
2019-06-08T05:40:46.286Z,100656.27
2019-06-08T05:41:50.616Z,100662.74
2019-06-08T05:42:55.389Z,100658.84
2019-06-08T05:43:59.604Z,100670.13
2019-06-08T05:45:08.462Z,100667.61
2019-06-08T05:46:12.646Z,100683.85
2019-06-08T05:47:17.507Z,100671.99
2019-06-08T05:48:21.709Z,100664.15
2019-06-08T05:49:26.507Z,100686.91
2019-06-08T05:50:30.786Z,100669.80
2019-06-08T05:51:35.558Z,100677.69
2019-06-08T05:52:39.933Z,100675.92
2019-06-08T05:53:45.853Z,100674.45
2019-06-08T05:54:50.263Z,100685.92
2019-06-08T05:55:56.199Z,100667.09
2019-06-08T05:57:00.475Z,100672.45
2019-06-08T05:58:05.523Z,100687.37
2019-06-08T05:59:09.726Z,100685.39
2019-06-08T06:00:14.604Z,100688.59
2019-06-08T06:01:18.913Z,100687.17
2019-06-08T06:02:23.697Z,100673.46
2019-06-08T06:03:27.883Z,100689.19
2019-06-08T06:04:32.657Z,100701.55
2019-06-08T06:05:36.910Z,100692.52
2019-06-08T06:06:42.415Z,100694.44
2019-06-08T06:07:46.780Z,100700.88
2019-06-08T06:08:51.671Z,100702.77
2019-06-08T06:09:55.861Z,100714.89
2019-06-08T06:11:01.783Z,100704.53
2019-06-08T06:12:05.967Z,100698.98
2019-06-08T06:13:10.891Z,100704.53
2019-06-08T06:14:15.165Z,100716.58
2019-06-08T06:15:19.935Z,100727.05
2019-06-08T06:16:25.423Z,100706.86
2019-06-08T06:17:30.214Z,100712.97
2019-06-08T06:18:34.401Z,100720.23
2019-06-08T06:19:39.201Z,100711.81
2019-06-08T06:20:45.266Z,100726.40
2019-06-08T06:21:51.573Z,100725.83
2019-06-08T06:22:58.591Z,100730.90
2019-06-08T06:24:03.862Z,100726.38
2019-06-08T06:25:08.807Z,100717.63
2019-06-08T06:26:13.613Z,100731.44
2019-06-08T06:27:17.795Z,100724.87
2019-06-08T06:28:22.591Z,100709.68
2019-06-08T06:29:26.799Z,100727.16
2019-06-08T06:30:31.646Z,100724.57
2019-06-08T06:31:35.821Z,100725.02
2019-06-08T06:32:41.747Z,100735.14
2019-06-08T06:33:47.854Z,100735.14
2019-06-08T06:34:52.823Z,100732.33
2019-06-08T06:35:58.027Z,100745.30
2019-06-08T06:37:02.794Z,100746.15
2019-06-08T06:38:07.032Z,100729.48
2019-06-08T06:39:11.878Z,100724.98
2019-06-08T06:40:16.170Z,100735.14
2019-06-08T06:41:20.937Z,100743.72
2019-06-08T06:42:25.964Z,100753.31
2019-06-08T06:43:30.735Z,100750.77
2019-06-08T06:44:35.095Z,100751.93
2019-06-08T06:45:39.859Z,100754.18
2019-06-08T06:46:44.067Z,100749.69
2019-06-08T06:47:50.347Z,100772.48
2019-06-08T06:48:55.156Z,100760.95
2019-06-08T06:49:59.994Z,100762.33
2019-06-08T06:51:05.231Z,100763.17
2019-06-08T06:52:10.079Z,100754.45
2019-06-08T06:53:14.271Z,100766.31
2019-06-08T06:54:19.045Z,100765.23
2019-06-08T06:55:25.380Z,100765.17
2019-06-08T06:56:29.791Z,100764.28
2019-06-08T06:57:36.475Z,100764.55
2019-06-08T06:58:41.517Z,100766.83
2019-06-08T06:59:45.758Z,100777.90
2019-06-08T07:00:51.566Z,100781.23
2019-06-08T07:01:57.672Z,100775.63
2019-06-08T07:03:02.559Z,100794.97
2019-06-08T07:04:06.914Z,100778.27
2019-06-08T07:05:11.770Z,100775.73
2019-06-08T07:06:16.027Z,100776.89
2019-06-08T07:07:20.817Z,100779.72
2019-06-08T07:08:26.127Z,100786.13
2019-06-08T07:09:31.107Z,100791.20
2019-06-08T07:10:35.366Z,100784.66
2019-06-08T07:11:40.280Z,100804.33
2019-06-08T07:12:46.517Z,100799.50
2019-06-08T07:13:51.312Z,100808.16
2019-06-08T07:14:55.603Z,100798.23
2019-06-08T07:16:17.170Z,100790.01
2019-06-08T07:17:09.046Z,100796.48
2019-06-08T07:18:13.925Z,100806.58
2019-06-08T07:19:18.357Z,100799.23
2019-06-08T07:20:23.221Z,100802.66
2019-06-08T07:21:40.867Z,100809.70
2019-06-08T07:22:33.991Z,100790.30
2019-06-08T07:23:38.316Z,100807.42
2019-06-08T07:24:43.086Z,100815.95
2019-06-08T07:25:48.410Z,100809.73
2019-06-08T07:26:54.462Z,100814.27
2019-06-08T07:27:59.794Z,100812.30
2019-06-08T07:29:05.691Z,100801.62
2019-06-08T07:30:10.306Z,100808.94
2019-06-08T07:31:15.078Z,100808.91
2019-06-08T07:32:19.355Z,100807.76
2019-06-08T07:33:24.177Z,100807.09
2019-06-08T07:34:28.435Z,100803.13
2019-06-08T07:35:33.920Z,100806.28
2019-06-08T07:36:38.176Z,100814.70
2019-06-08T07:37:42.968Z,100813.49
2019-06-08T07:38:48.676Z,100811.17
2019-06-08T07:39:53.766Z,100806.56
2019-06-08T07:40:59.994Z,100819.90
2019-06-08T07:42:05.274Z,100817.22
2019-06-08T07:43:09.631Z,100799.80
2019-06-08T07:44:14.504Z,100800.61
2019-06-08T07:45:18.720Z,100804.27
2019-06-08T07:46:23.656Z,100816.15
2019-06-08T07:47:27.841Z,100802.32
2019-06-08T07:48:33.702Z,100814.97
2019-06-08T07:49:38.183Z,100812.89
2019-06-08T07:50:42.988Z,100814.30
2019-06-08T07:51:58.681Z,100813.69
2019-06-08T07:52:54.647Z,100820.61
2019-06-08T07:53:59.900Z,100799.42
2019-06-08T07:55:06.834Z,100828.23
2019-06-08T07:56:11.022Z,100809.06
2019-06-08T07:57:15.820Z,100810.34
2019-06-08T07:58:20.032Z,100816.47
2019-06-08T07:59:24.875Z,100808.02
2019-06-08T08:00:29.202Z,100820.25
2019-06-08T08:01:36.479Z,100812.28
2019-06-08T08:02:40.350Z,100819.52
2019-06-08T08:03:45.113Z,100815.98
2019-06-08T08:04:50.509Z,100814.13
2019-06-08T08:05:56.727Z,100810.52
2019-06-08T08:07:01.140Z,100808.00
2019-06-08T08:08:06.045Z,100815.02
2019-06-08T08:09:10.242Z,100816.69
2019-06-08T08:10:15.124Z,100821.18
2019-06-08T08:11:19.428Z,100818.89
2019-06-08T08:12:24.250Z,100812.37
2019-06-08T08:13:28.582Z,100820.53
2019-06-08T08:14:34.400Z,100823.01
2019-06-08T08:15:38.722Z,100819.87
2019-06-08T08:16:43.592Z,100828.30
2019-06-08T08:17:49.058Z,100814.14
2019-06-08T08:18:53.987Z,100835.27
2019-06-08T08:19:59.406Z,100828.70
2019-06-08T08:21:14.319Z,100830.55
2019-06-08T08:22:22.334Z,100825.26
2019-06-08T08:23:17.378Z,100809.77
2019-06-08T08:24:23.259Z,100828.78
2019-06-08T08:25:28.245Z,100832.88
2019-06-08T08:26:34.446Z,100845.53
2019-06-08T08:27:39.156Z,100839.58
2019-06-08T08:28:43.511Z,100843.77
2019-06-08T08:29:48.976Z,100851.05
2019-06-08T08:30:55.416Z,100850.92
2019-06-08T08:32:01.994Z,100861.95
2019-06-08T08:33:07.789Z,100850.92
2019-06-08T08:34:12.799Z,100854.23
2019-06-08T08:35:18.573Z,100853.30
2019-06-08T08:36:23.401Z,100855.19
2019-06-08T08:37:28.156Z,100855.14
2019-06-08T08:38:32.958Z,100850.37
2019-06-08T08:39:37.629Z,100859.69
2019-06-08T08:40:43.723Z,100854.88
2019-06-08T08:41:53.716Z,100842.38
2019-06-08T08:42:55.709Z,100851.69
2019-06-08T08:44:04.293Z,100853.27
2019-06-08T08:45:08.667Z,100860.00
2019-06-08T08:46:13.384Z,100858.22
2019-06-08T08:47:18.668Z,100863.87
2019-06-08T08:48:28.163Z,100861.09
2019-06-08T08:49:29.530Z,100868.38
2019-06-08T08:50:33.715Z,100859.41
2019-06-08T08:51:38.879Z,100851.25
2019-06-08T08:52:43.077Z,100862.51
2019-06-08T08:53:48.144Z,100857.55
2019-06-08T08:54:54.312Z,100864.55
2019-06-08T08:56:01.276Z,100859.69
2019-06-08T08:57:07.714Z,100868.00
2019-06-08T08:58:13.161Z,100868.17
2019-06-08T08:59:17.850Z,100877.97
2019-06-08T09:00:22.954Z,100891.31
2019-06-08T09:01:28.916Z,100883.77
2019-06-08T09:02:34.003Z,100873.91
2019-06-08T09:03:39.600Z,100879.84
2019-06-08T09:04:44.791Z,100882.20
2019-06-08T09:05:49.001Z,100870.04
2019-06-08T09:06:55.345Z,100875.64
2019-06-08T09:08:02.086Z,100878.95
2019-06-08T09:09:08.922Z,100870.98
2019-06-08T09:10:13.362Z,100871.47
2019-06-08T09:11:18.157Z,100892.45
2019-06-08T09:12:22.375Z,100901.94
2019-06-08T09:13:28.102Z,100894.65
2019-06-08T09:14:33.574Z,100884.09
2019-06-08T09:15:38.423Z,100893.98
2019-06-08T09:16:43.111Z,100902.40
2019-06-08T09:17:48.374Z,100890.23
2019-06-08T09:18:53.748Z,100890.45
2019-06-08T09:20:00.339Z,100885.42
2019-06-08T09:21:08.162Z,100898.14
2019-06-08T09:22:12.095Z,100901.81
2019-06-08T09:23:21.609Z,100897.00
2019-06-08T09:24:24.035Z,100901.19
2019-06-08T09:25:28.282Z,100896.55
2019-06-08T09:26:34.704Z,100897.59
2019-06-08T09:27:39.028Z,100894.66
2019-06-08T09:28:43.842Z,100899.62
2019-06-08T09:29:48.330Z,100902.91
2019-06-08T09:30:54.152Z,100900.52
2019-06-08T09:32:00.734Z,100896.22
2019-06-08T09:33:07.809Z,100900.30
2019-06-08T09:34:15.193Z,100902.45
2019-06-08T09:35:18.633Z,100899.89
2019-06-08T09:36:23.813Z,100900.44
2019-06-08T09:37:28.926Z,100908.26
2019-06-08T09:38:33.144Z,100903.70
2019-06-08T09:39:38.509Z,100911.35
2019-06-08T09:40:43.073Z,100904.50
2019-06-08T09:41:48.077Z,100903.34
2019-06-08T09:42:55.875Z,100906.10
2019-06-08T09:44:02.367Z,100909.04
2019-06-08T09:45:09.331Z,100901.70
2019-06-08T09:46:14.181Z,100902.73
2019-06-08T09:47:18.603Z,100906.98
2019-06-08T09:48:23.401Z,100901.50
2019-06-08T09:49:28.086Z,100904.84
2019-06-08T09:50:32.858Z,100909.35
2019-06-08T09:51:37.887Z,100914.70
2019-06-08T09:52:42.754Z,100913.17
2019-06-08T09:53:47.625Z,100945.70
2019-06-08T09:54:54.175Z,100912.55
2019-06-08T09:56:02.431Z,100910.73
2019-06-08T09:57:06.621Z,100924.77
2019-06-08T09:58:11.981Z,100916.43
2019-06-08T09:59:18.834Z,100918.01
2019-06-08T10:00:26.332Z,100922.13
2019-06-08T10:01:30.197Z,100925.96
2019-06-08T10:02:34.389Z,100912.70
2019-06-08T10:03:39.414Z,100923.95
2019-06-08T10:04:43.644Z,100934.91
2019-06-08T10:05:48.567Z,100923.50
2019-06-08T10:06:54.227Z,100919.16
2019-06-08T10:08:00.885Z,100933.23
2019-06-08T10:09:09.019Z,100921.45
2019-06-08T10:10:13.627Z,100916.64
2019-06-08T10:11:17.907Z,100919.47
2019-06-08T10:12:22.675Z,100926.78
2019-06-08T10:13:28.061Z,100918.61
2019-06-08T10:14:33.682Z,100926.47
2019-06-08T10:15:38.739Z,100920.81
2019-06-08T10:16:43.679Z,100930.09
2019-06-08T10:17:47.993Z,100925.44
2019-06-08T10:18:52.762Z,100918.47
2019-06-08T10:19:59.401Z,100908.05
2019-06-08T10:21:06.019Z,100917.31
2019-06-08T10:22:09.447Z,100918.87
2019-06-08T10:23:30.317Z,100917.19
2019-06-08T10:24:20.097Z,100916.77
2019-06-08T10:25:24.971Z,100925.47
2019-06-08T10:26:29.270Z,100921.10
2019-06-08T10:27:34.125Z,100930.80
2019-06-08T10:28:39.038Z,100923.73
2019-06-08T10:29:44.888Z,100926.30
2019-06-08T10:30:49.158Z,100912.27
2019-06-08T10:31:55.106Z,100913.14
2019-06-08T10:33:01.827Z,100912.88
2019-06-08T10:34:11.002Z,100912.37
2019-06-08T10:35:14.353Z,100923.23
2019-06-08T10:36:19.184Z,100922.59
2019-06-08T10:37:23.458Z,100920.58
2019-06-08T10:38:28.938Z,100919.81
2019-06-08T10:39:33.399Z,100923.98
2019-06-08T10:40:39.319Z,100919.61
2019-06-08T10:41:43.492Z,100921.45
2019-06-08T10:42:48.429Z,100924.77
2019-06-08T10:43:53.624Z,100918.78
2019-06-08T10:45:02.818Z,100924.96
2019-06-08T10:46:10.268Z,100918.46
2019-06-08T10:47:12.088Z,100916.23
2019-06-08T10:48:17.922Z,100916.91
2019-06-08T10:49:22.832Z,100911.63
2019-06-08T10:50:28.788Z,100912.88
2019-06-08T10:51:33.675Z,100916.94
2019-06-08T10:52:39.130Z,100917.04
2019-06-08T10:53:49.343Z,100923.22
2019-06-08T10:54:50.412Z,100919.64
2019-06-08T10:55:57.850Z,100920.82
2019-06-08T10:57:05.007Z,100923.42
2019-06-08T10:58:10.899Z,100930.29
2019-06-08T10:59:14.273Z,100921.08
2019-06-08T11:00:23.992Z,100924.03
2019-06-08T11:01:28.800Z,100934.03
2019-06-08T11:02:33.674Z,100923.59
2019-06-08T11:03:38.842Z,100945.94
2019-06-08T11:04:43.870Z,100933.19
2019-06-08T11:05:48.315Z,100942.65
2019-06-08T11:06:54.828Z,100946.52
2019-06-08T11:08:00.665Z,100938.17
2019-06-08T11:09:12.292Z,100929.93
2019-06-08T11:10:12.906Z,100936.78
2019-06-08T11:11:20.196Z,100933.17
2019-06-08T11:12:28.126Z,100934.09
2019-06-08T11:13:32.313Z,100936.38
2019-06-08T11:14:38.169Z,100932.05
2019-06-08T11:15:42.977Z,100940.67
2019-06-08T11:16:47.569Z,100936.30
2019-06-08T11:17:53.577Z,100927.07
2019-06-08T11:18:59.076Z,100934.64
2019-06-08T11:20:11.155Z,100926.27
2019-06-08T11:21:13.070Z,100930.20
2019-06-08T11:22:18.971Z,100930.27
2019-06-08T11:23:23.156Z,100942.09
2019-06-08T11:24:28.948Z,100932.22
2019-06-08T11:25:34.324Z,100940.88
2019-06-08T11:26:40.334Z,100936.16
2019-06-08T11:27:44.672Z,100941.37
2019-06-08T11:28:51.222Z,100936.72
2019-06-08T11:29:57.451Z,100925.47
2019-06-08T11:31:01.966Z,100944.28
2019-06-08T11:32:09.318Z,100934.60
2019-06-08T11:33:12.642Z,100944.72
2019-06-08T11:34:18.691Z,100943.66
2019-06-08T11:35:23.318Z,100940.71
2019-06-08T11:36:28.166Z,100947.88
2019-06-08T11:37:33.093Z,100945.34
2019-06-08T11:38:38.231Z,100934.72
2019-06-08T11:39:43.049Z,100934.78
2019-06-08T11:40:47.831Z,100934.27
2019-06-08T11:41:52.670Z,100949.63
2019-06-08T11:42:58.618Z,100940.20
2019-06-08T11:44:03.821Z,100945.87
2019-06-08T11:45:12.735Z,100935.30
2019-06-08T11:46:20.627Z,100942.27
2019-06-08T11:47:21.952Z,100943.48
2019-06-08T11:48:28.520Z,100942.14
2019-06-08T11:49:32.831Z,100935.30
2019-06-08T11:50:42.363Z,100939.52
2019-06-08T11:51:47.832Z,100943.81
2019-06-08T11:52:52.724Z,100947.05
2019-06-08T11:53:59.268Z,100945.81
2019-06-08T11:55:05.363Z,100947.62
2019-06-08T11:56:11.740Z,100941.26
2019-06-08T11:57:17.695Z,100948.06
2019-06-08T11:58:23.231Z,100941.30
2019-06-08T11:59:28.559Z,100944.53
2019-06-08T12:00:55.658Z,100941.48
2019-06-08T12:02:01.912Z,100940.20
2019-06-08T12:03:08.832Z,100941.70
2019-06-08T12:04:13.564Z,100942.53
2019-06-08T12:05:18.161Z,100953.13
2019-06-08T12:06:23.685Z,100956.97
2019-06-08T12:07:30.294Z,100956.11
2019-06-08T12:08:34.475Z,100954.75
2019-06-08T12:09:38.664Z,100955.08
2019-06-08T12:10:43.527Z,100951.08
2019-06-08T12:11:48.104Z,100944.14
2019-06-08T12:12:52.968Z,100947.95
2019-06-08T12:13:58.492Z,100956.07
2019-06-08T12:15:03.364Z,100952.00
2019-06-08T12:16:15.028Z,100953.05
2019-06-08T12:17:19.196Z,100953.62
2019-06-08T12:18:21.258Z,100943.23
2019-06-08T12:19:28.391Z,100947.16
2019-06-08T12:20:31.914Z,100949.63
2019-06-08T12:21:36.690Z,100947.41
2019-06-08T12:22:40.894Z,100953.55
2019-06-08T12:23:45.658Z,100942.38